Time;durP1;ratioP1;P1;durP2;ratioP2;P2;SDS_P1;SDS_P2;PMS_P1;PMS_P2;Temp;Humidity;BMP_temperature;BMP_pressure;BME280_temperature;BME280_humidity;BME280_pressure;Samples;Min_cycle;Max_cycle;Signal;HPM_P1;HPM_P2
2022/09/30 05:00:42;;;;;;;11.30;7.30;;;11.00;97.20;;;;;;1700263;29;20306;-70
2022/09/30 05:01:34;;;;;;;9.98;7.78;;;11.00;97.20;;;;;;1692251;29;20204;-69
2022/09/30 05:02:26;;;;;;;8.25;7.38;;;11.00;97.20;;;;;;1693342;29;20282;-69
2022/09/30 05:03:18;;;;;;;8.35;7.55;;;11.00;97.20;;;;;;1693303;29;20657;-70
2022/09/30 05:04:11;;;;;;;7.80;7.15;;;11.00;97.20;;;;;;1693481;29;20196;-70
2022/09/30 05:05:02;;;;;;;8.38;6.95;;;11.00;97.20;;;;;;1690007;29;20849;-70
2022/09/30 05:05:54;;;;;;;8.35;7.15;;;11.00;97.20;;;;;;1699918;29;20199;-70
2022/09/30 05:06:45;;;;;;;7.43;6.57;;;11.00;97.20;;;;;;1700202;29;20214;-70
2022/09/30 05:07:36;;;;;;;7.57;6.70;;;11.00;97.20;;;;;;1699926;29;20199;-70
2022/09/30 05:08:28;;;;;;;7.68;6.95;;;11.00;97.20;;;;;;1700117;29;20210;-70
2022/09/30 05:09:19;;;;;;;8.13;6.40;;;11.00;97.20;;;;;;1700128;29;20227;-70
2022/09/30 05:10:11;;;;;;;7.78;6.15;;;11.00;97.20;;;;;;1699715;29;20207;-70
2022/09/30 05:11:08;;;;;;;7.18;6.53;;;11.00;97.20;;;;;;1700225;29;20231;-70
2022/09/30 05:12:01;;;;;;;7.50;6.45;;;11.10;97.20;;;;;;1700138;29;20211;-70
2022/09/30 05:12:53;;;;;;;6.65;6.05;;;11.10;97.20;;;;;;1700185;29;20207;-70
2022/09/30 05:13:43;;;;;;;7.28;6.18;;;11.10;97.20;;;;;;1700238;29;20222;-70
2022/09/30 05:14:35;;;;;;;7.13;5.57;;;11.10;97.20;;;;;;1694027;29;20816;-70
2022/09/30 05:15:26;;;;;;;7.22;6.10;;;11.10;97.20;;;;;;1693294;29;20962;-70
2022/09/30 05:16:20;;;;;;;6.87;6.20;;;11.10;97.20;;;;;;1693536;29;20819;-69
2022/09/30 05:17:11;;;;;;;8.00;6.18;;;11.10;97.20;;;;;;1693704;29;20776;-69
2022/09/30 05:18:04;;;;;;;5.72;5.05;;;11.10;97.20;;;;;;1693569;29;20199;-70
2022/09/30 05:18:55;;;;;;;6.28;5.00;;;11.10;97.20;;;;;;1693596;29;20212;-70
2022/09/30 05:19:47;;;;;;;6.03;5.27;;;11.10;97.20;;;;;;1693457;29;20263;-70
2022/09/30 05:20:38;;;;;;;6.63;5.43;;;11.10;97.20;;;;;;1693422;29;20306;-70
2022/09/30 05:21:29;;;;;;;5.63;5.10;;;11.10;97.20;;;;;;1693329;29;20231;-70
2022/09/30 05:22:22;;;;;;;6.78;4.82;;;11.10;97.20;;;;;;1693484;29;20212;-70
2022/09/30 05:23:13;;;;;;;5.85;5.25;;;11.10;97.20;;;;;;1693659;29;20228;-69
2022/09/30 05:24:04;;;;;;;6.53;5.75;;;11.10;97.20;;;;;;1693358;29;20215;-70
2022/09/30 05:24:56;;;;;;;5.33;4.83;;;11.10;97.20;;;;;;1693323;29;20206;-70
2022/09/30 05:25:47;;;;;;;6.40;5.70;;;11.10;97.20;;;;;;1690203;29;20223;-70
2022/09/30 05:26:39;;;;;;;5.80;4.97;;;11.10;97.20;;;;;;1692719;29;20291;-70
2022/09/30 05:27:30;;;;;;;6.03;4.82;;;11.10;97.20;;;;;;1697424;29;20455;-70
2022/09/30 05:28:25;;;;;;;5.87;5.37;;;11.10;97.20;;;;;;1696626;29;20270;-70
2022/09/30 05:29:16;;;;;;;9.35;5.57;;;11.10;97.20;;;;;;1688867;29;20238;-70
2022/09/30 05:30:09;;;;;;;6.10;5.17;;;11.10;97.20;;;;;;1693185;29;20200;-70
2022/09/30 05:31:02;;;;;;;6.15;5.65;;;11.10;97.20;;;;;;1693509;29;20216;-70
2022/09/30 05:31:55;;;;;;;6.88;5.70;;;11.10;97.20;;;;;;1693393;29;20200;-70
2022/09/30 05:32:46;;;;;;;8.95;6.32;;;11.10;97.20;;;;;;1693942;29;20623;-69
2022/09/30 05:33:37;;;;;;;8.07;6.87;;;11.10;97.20;;;;;;1693732;29;20204;-70
2022/09/30 05:34:29;;;;;;;9.45;7.30;;;11.10;97.20;;;;;;1693488;29;20250;-71
2022/09/30 05:35:20;;;;;;;9.98;7.47;;;11.10;97.20;;;;;;1693904;29;20259;-70
2022/09/30 05:36:14;;;;;;;9.15;7.00;;;11.10;97.20;;;;;;1693041;29;20214;-70
2022/09/30 05:37:07;;;;;;;8.82;6.65;;;11.10;97.20;;;;;;1693381;29;20208;-70
2022/09/30 05:37:59;;;;;;;7.90;7.10;;;11.10;97.20;;;;;;1693662;29;20328;-70
2022/09/30 05:38:51;;;;;;;9.77;7.03;;;11.20;97.20;;;;;;1693715;29;20613;-70
2022/09/30 05:39:42;;;;;;;8.40;7.22;;;11.20;97.20;;;;;;1693839;29;20624;-70
2022/09/30 05:40:36;;;;;;;8.53;7.33;;;11.20;97.20;;;;;;1694799;29;20552;-71
2022/09/30 05:41:27;;;;;;;8.18;6.78;;;11.20;97.20;;;;;;1694661;29;20866;-70
2022/09/30 05:42:19;;;;;;;8.80;7.00;;;11.20;97.20;;;;;;1694702;29;20207;-71
2022/09/30 05:43:09;;;;;;;9.32;7.22;;;11.20;97.20;;;;;;1694725;29;20266;-70
2022/09/30 05:44:01;;;;;;;8.50;7.13;;;11.20;97.20;;;;;;1694581;29;20203;-70
2022/09/30 05:44:52;;;;;;;8.80;6.93;;;11.20;97.20;;;;;;1694633;29;20211;-71
2022/09/30 05:45:52;;;;;;;11.20;6.77;;;11.20;97.20;;;;;;1694802;29;20287;-71
2022/09/30 05:46:43;;;;;;;7.60;6.80;;;11.20;97.20;;;;;;1694571;29;20211;-70
2022/09/30 05:47:36;;;;;;;7.90;6.70;;;11.20;97.20;;;;;;1694826;29;20208;-71
2022/09/30 05:48:27;;;;;;;8.88;6.63;;;11.20;97.20;;;;;;1694473;29;20212;-70
2022/09/30 05:49:18;;;;;;;9.13;6.50;;;11.20;97.20;;;;;;1694856;29;20208;-71
2022/09/30 05:50:12;;;;;;;8.00;6.43;;;11.20;97.20;;;;;;1694142;29;20640;-71
2022/09/30 05:51:04;;;;;;;7.13;6.43;;;11.20;97.20;;;;;;1694759;29;20212;-71
2022/09/30 05:51:55;;;;;;;7.63;6.53;;;11.30;97.20;;;;;;1694473;29;20223;-71
2022/09/30 05:52:48;;;;;;;7.50;6.80;;;11.30;97.20;;;;;;1694734;29;20299;-70
2022/09/30 05:53:40;;;;;;;8.68;7.25;;;11.30;97.20;;;;;;1694805;29;20455;-70
2022/09/30 05:54:31;;;;;;;8.88;7.97;;;11.30;97.20;;;;;;1694331;29;20584;-70
2022/09/30 05:55:22;;;;;;;9.23;7.50;;;11.20;97.20;;;;;;1694832;29;20204;-70
2022/09/30 05:56:14;;;;;;;13.80;8.40;;;11.20;97.20;;;;;;1694761;29;20218;-70
2022/09/30 05:57:06;;;;;;;7.88;7.00;;;11.20;97.20;;;;;;1694507;29;20471;-70
2022/09/30 05:57:58;;;;;;;8.48;7.72;;;11.20;97.20;;;;;;1694686;29;20745;-71
2022/09/30 05:58:49;;;;;;;8.85;7.28;;;11.20;97.20;;;;;;1694695;29;20233;-70
2022/09/30 05:59:41;;;;;;;9.10;7.43;;;11.20;97.20;;;;;;1694032;29;20294;-70
2022/09/30 06:00:32;;;;;;;7.75;6.95;;;11.20;97.20;;;;;;1694310;29;20231;-71
2022/09/30 06:01:23;;;;;;;8.60;7.80;;;11.20;97.20;;;;;;1694834;29;20188;-71
2022/09/30 06:02:14;;;;;;;9.70;6.80;;;11.20;97.20;;;;;;1694548;29;20214;-70
2022/09/30 06:03:07;;;;;;;7.40;6.57;;;11.20;97.20;;;;;;1694457;29;20210;-70
2022/09/30 06:03:58;;;;;;;7.30;6.60;;;11.20;97.20;;;;;;1694649;29;20686;-71
2022/09/30 06:04:50;;;;;;;7.27;6.67;;;11.20;97.20;;;;;;1694349;29;20226;-70
2022/09/30 06:05:41;;;;;;;7.30;6.55;;;11.20;97.20;;;;;;1694445;29;20590;-70
2022/09/30 06:06:32;;;;;;;8.53;6.80;;;11.20;97.20;;;;;;1694502;29;20568;-70
2022/09/30 06:07:23;;;;;;;8.02;7.05;;;11.20;97.20;;;;;;1694574;29;20476;-71
2022/09/30 06:08:15;;;;;;;6.33;5.83;;;11.20;97.20;;;;;;1694608;29;20223;-71
2022/09/30 06:09:06;;;;;;;7.43;6.20;;;11.20;97.20;;;;;;1694417;29;20204;-70
2022/09/30 06:09:58;;;;;;;7.70;6.90;;;11.20;97.20;;;;;;1694175;29;20239;-70
2022/09/30 06:10:49;;;;;;;7.68;6.32;;;11.20;97.20;;;;;;1694463;29;20252;-70
2022/09/30 06:11:41;;;;;;;7.10;6.50;;;11.20;97.20;;;;;;1694491;29;20208;-70
2022/09/30 06:12:32;;;;;;;7.70;6.72;;;11.20;97.20;;;;;;1694620;29;20601;-70
2022/09/30 06:13:24;;;;;;;10.15;6.20;;;11.20;97.20;;;;;;1694585;29;20203;-71
2022/09/30 06:14:17;;;;;;;8.20;7.15;;;11.20;97.20;;;;;;1694280;29;20216;-70
2022/09/30 06:15:10;;;;;;;7.43;6.82;;;11.30;97.20;;;;;;1694487;29;20196;-70
2022/09/30 06:16:01;;;;;;;7.03;6.32;;;11.30;97.20;;;;;;1694544;29;20218;-70
2022/09/30 06:16:53;;;;;;;10.25;6.00;;;11.30;97.20;;;;;;1694302;29;20210;-70
2022/09/30 06:17:45;;;;;;;7.80;6.68;;;11.30;97.20;;;;;;1694402;29;20218;-70
2022/09/30 06:18:40;;;;;;;7.25;6.55;;;11.30;97.20;;;;;;1694432;29;20223;-70
2022/09/30 06:19:31;;;;;;;8.27;6.50;;;11.30;97.20;;;;;;1694762;29;20290;-70
2022/09/30 06:20:22;;;;;;;8.50;6.60;;;11.30;97.20;;;;;;1694094;29;20204;-70
2022/09/30 06:21:15;;;;;;;7.65;6.75;;;11.30;97.20;;;;;;1694628;29;20222;-71
2022/09/30 06:22:07;;;;;;;8.93;7.97;;;11.30;97.20;;;;;;1694375;29;20207;-71
2022/09/30 06:22:59;;;;;;;10.13;7.80;;;11.30;97.20;;;;;;1694523;29;20211;-70
2022/09/30 06:23:50;;;;;;;9.90;7.45;;;11.30;97.20;;;;;;1694343;29;20227;-70
2022/09/30 06:24:41;;;;;;;8.70;7.80;;;11.30;97.20;;;;;;1693781;29;20820;-71
2022/09/30 06:25:33;;;;;;;9.93;8.53;;;11.40;97.20;;;;;;1693793;29;20567;-70
2022/09/30 06:26:24;;;;;;;11.35;9.07;;;11.40;97.20;;;;;;1693515;29;20262;-70
2022/09/30 06:27:16;;;;;;;13.43;9.77;;;11.40;97.20;;;;;;1693287;29;20216;-70
2022/09/30 06:28:07;;;;;;;10.80;8.80;;;11.40;97.20;;;;;;1693434;29;20207;-70
2022/09/30 06:28:58;;;;;;;13.50;10.10;;;11.40;97.20;;;;;;1693532;29;20724;-70
2022/09/30 06:29:49;;;;;;;15.55;10.50;;;11.40;97.20;;;;;;1693910;29;20216;-71
2022/09/30 06:30:41;;;;;;;11.87;8.57;;;11.40;97.20;;;;;;1694517;29;20228;-71
2022/09/30 06:31:31;;;;;;;11.70;9.50;;;11.40;97.20;;;;;;1694241;29;20200;-70
2022/09/30 06:32:24;;;;;;;14.50;9.73;;;11.40;97.20;;;;;;1693932;29;20203;-70
2022/09/30 06:33:16;;;;;;;12.45;10.40;;;11.40;97.20;;;;;;1694561;29;20208;-71
2022/09/30 06:34:09;;;;;;;10.52;9.43;;;11.40;97.20;;;;;;1693923;29;20247;-70
2022/09/30 06:35:01;;;;;;;11.52;8.25;;;11.40;97.20;;;;;;1693968;29;20203;-71
2022/09/30 06:35:53;;;;;;;11.95;9.25;;;11.40;97.20;;;;;;1694444;29;20192;-70
2022/09/30 06:36:44;;;;;;;9.45;8.43;;;11.40;97.20;;;;;;1694367;29;20207;-70
2022/09/30 06:37:36;;;;;;;11.50;9.20;;;11.40;97.20;;;;;;1694687;29;20278;-70
2022/09/30 06:38:27;;;;;;;10.00;8.65;;;11.40;97.20;;;;;;1694399;29;20215;-70
2022/09/30 06:39:19;;;;;;;11.20;8.30;;;11.40;97.20;;;;;;1694534;29;20279;-71
2022/09/30 06:40:10;;;;;;;10.55;8.18;;;11.40;97.20;;;;;;1694120;29;20537;-70
2022/09/30 06:41:02;;;;;;;8.23;7.53;;;11.40;97.20;;;;;;1694641;29;20325;-71
2022/09/30 06:41:52;;;;;;;9.77;8.77;;;11.50;97.20;;;;;;1694553;29;20211;-70
2022/09/30 06:42:44;;;;;;;14.43;8.90;;;11.50;97.20;;;;;;1694658;29;20208;-70
2022/09/30 06:43:35;;;;;;;10.52;9.20;;;11.50;97.20;;;;;;1694499;29;20234;-70
2022/09/30 06:44:27;;;;;;;10.85;8.95;;;11.50;97.20;;;;;;1694175;29;20291;-71
2022/09/30 06:45:18;;;;;;;9.45;8.45;;;11.50;97.20;;;;;;1694616;29;20604;-71
2022/09/30 06:46:11;;;;;;;10.17;9.20;;;11.50;97.20;;;;;;1694587;29;20571;-71
2022/09/30 06:47:02;;;;;;;11.18;9.57;;;11.50;97.20;;;;;;1694309;29;20208;-70
2022/09/30 06:47:57;;;;;;;16.17;11.10;;;11.50;97.20;;;;;;1694674;29;20286;-70
2022/09/30 06:48:48;;;;;;;13.98;10.07;;;11.50;97.20;;;;;;1694616;29;20203;-71
2022/09/30 06:49:41;;;;;;;10.67;9.57;;;11.50;97.20;;;;;;1694053;29;20207;-70
2022/09/30 06:50:32;;;;;;;12.15;10.75;;;11.50;97.20;;;;;;1694400;29;20255;-71
2022/09/30 06:51:25;;;;;;;12.33;10.33;;;11.50;97.20;;;;;;1694484;29;20302;-70
2022/09/30 06:52:15;;;;;;;14.35;9.57;;;11.50;97.20;;;;;;1694576;29;20813;-70
2022/09/30 06:53:09;;;;;;;13.17;10.37;;;11.50;97.20;;;;;;1694546;29;20207;-71
2022/09/30 06:53:59;;;;;;;13.77;11.20;;;11.50;97.20;;;;;;1694598;29;20241;-70
2022/09/30 06:54:51;;;;;;;14.97;11.43;;;11.60;97.20;;;;;;1694235;29;20223;-71
2022/09/30 06:55:42;;;;;;;11.18;10.10;;;11.60;97.20;;;;;;1694609;29;20214;-70
2022/09/30 06:56:34;;;;;;;11.53;10.10;;;11.60;97.20;;;;;;1694421;29;20242;-70
2022/09/30 06:57:26;;;;;;;13.63;12.20;;;11.60;97.20;;;;;;1694357;29;20238;-71
2022/09/30 06:58:18;;;;;;;14.80;13.30;;;11.70;97.20;;;;;;1694541;29;20216;-71
2022/09/30 06:59:08;;;;;;;12.70;11.40;;;11.70;97.20;;;;;;1694476;29;20587;-71
2022/09/30 07:00:00;;;;;;;14.63;13.07;;;11.70;97.20;;;;;;1694027;29;20211;-70
2022/09/30 07:00:59;;;;;;;15.85;12.25;;;11.80;97.20;;;;;;1694332;29;20611;-71
2022/09/30 07:01:51;;;;;;;18.10;13.35;;;11.80;97.20;;;;;;1694401;29;20208;-71
2022/09/30 07:02:42;;;;;;;15.85;12.82;;;11.80;97.20;;;;;;1694414;29;20208;-70
2022/09/30 07:03:35;;;;;;;13.57;12.17;;;11.80;97.20;;;;;;1694367;29;20204;-71
2022/09/30 07:04:26;;;;;;;13.25;11.93;;;11.80;97.20;;;;;;1694262;29;20212;-71
2022/09/30 07:05:19;;;;;;;16.97;12.57;;;11.80;97.20;;;;;;1687971;29;21030;-71
2022/09/30 07:06:12;;;;;;;16.98;11.35;;;11.80;97.20;;;;;;1687858;29;20208;-71
2022/09/30 07:07:05;;;;;;;14.73;12.10;;;11.80;97.20;;;;;;1687751;29;20203;-70
2022/09/30 07:07:56;;;;;;;17.27;12.98;;;11.80;97.20;;;;;;1688052;29;20605;-70
2022/09/30 07:08:48;;;;;;;14.00;12.00;;;11.80;97.20;;;;;;1687871;29;20590;-71
2022/09/30 07:09:38;;;;;;;19.45;14.32;;;11.70;97.20;;;;;;1687389;29;20204;-70
2022/09/30 07:10:30;;;;;;;17.53;12.97;;;11.70;97.20;;;;;;1687816;29;20204;-70
2022/09/30 07:11:25;;;;;;;18.52;13.23;;;11.70;97.20;;;;;;1687871;29;20480;-70
2022/09/30 07:12:16;;;;;;;17.90;13.65;;;11.70;97.20;;;;;;1688013;29;20205;-70
2022/09/30 07:13:07;;;;;;;16.90;13.63;;;11.70;97.20;;;;;;1687854;29;20217;-70
2022/09/30 07:13:59;;;;;;;17.83;13.60;;;11.80;97.20;;;;;;1687946;29;20205;-70
2022/09/30 07:14:50;;;;;;;15.35;12.93;;;11.70;97.20;;;;;;1691030;29;20448;-70
2022/09/30 07:15:42;;;;;;;17.93;13.43;;;11.80;97.20;;;;;;1694381;29;20203;-70
2022/09/30 07:16:33;;;;;;;16.30;13.90;;;11.70;97.20;;;;;;1694287;29;20215;-70
2022/09/30 07:17:24;;;;;;;21.42;14.70;;;11.70;97.20;;;;;;1694203;29;20592;-70
2022/09/30 07:18:19;;;;;;;18.13;14.75;;;11.70;97.20;;;;;;1694388;29;20683;-70
2022/09/30 07:19:11;;;;;;;17.77;15.88;;;11.70;97.20;;;;;;1694354;29;20617;-70
2022/09/30 07:20:02;;;;;;;17.15;14.43;;;11.80;97.20;;;;;;1693778;29;20212;-70
2022/09/30 07:20:56;;;;;;;16.40;14.68;;;11.80;97.20;;;;;;1694346;29;20308;-69
2022/09/30 07:21:49;;;;;;;16.92;14.55;;;11.80;97.20;;;;;;1694212;29;20215;-70
2022/09/30 07:22:41;;;;;;;14.60;13.10;;;11.80;97.20;;;;;;1694377;29;20212;-70
2022/09/30 07:23:32;;;;;;;31.88;14.38;;;11.80;97.20;;;;;;1694312;29;20200;-69
2022/09/30 07:24:23;;;;;;;19.45;15.95;;;11.80;97.20;;;;;;1694360;29;20219;-69
2022/09/30 07:25:16;;;;;;;18.02;15.40;;;11.80;97.20;;;;;;1694141;29;20651;-69
2022/09/30 07:26:07;;;;;;;19.23;15.10;;;11.80;97.20;;;;;;1694327;29;20295;-69
2022/09/30 07:26:59;;;;;;;16.90;14.90;;;11.80;97.20;;;;;;1694281;29;20212;-69
2022/09/30 07:27:49;;;;;;;14.70;13.30;;;11.80;97.20;;;;;;1694357;29;20214;-70
2022/09/30 07:28:42;;;;;;;15.50;14.00;;;11.80;97.20;;;;;;1694369;29;20208;-70
2022/09/30 07:29:33;;;;;;;15.25;13.75;;;11.80;97.20;;;;;;1693854;29;20214;-70
2022/09/30 07:30:24;;;;;;;16.30;14.70;;;11.80;97.20;;;;;;1694230;29;20210;-70
2022/09/30 07:31:19;;;;;;;16.17;14.30;;;11.80;97.20;;;;;;1694363;29;20203;-70
2022/09/30 07:32:12;;;;;;;18.45;15.10;;;11.80;97.20;;;;;;1694196;29;20636;-70
2022/09/30 07:33:03;;;;;;;20.00;17.15;;;11.80;97.20;;;;;;1694289;29;20207;-70
2022/09/30 07:33:55;;;;;;;18.13;16.23;;;11.70;97.20;;;;;;1694342;29;20206;-70
2022/09/30 07:34:46;;;;;;;16.50;14.88;;;11.70;97.20;;;;;;1693950;29;20448;-70
2022/09/30 07:35:38;;;;;;;17.73;15.80;;;11.70;97.20;;;;;;1694378;29;20294;-70
2022/09/30 07:36:30;;;;;;;16.45;14.75;;;11.70;97.20;;;;;;1694339;29;20451;-70
2022/09/30 07:37:25;;;;;;;18.02;16.13;;;11.80;97.20;;;;;;1694101;29;20212;-70
2022/09/30 07:38:17;;;;;;;18.40;16.20;;;11.80;97.20;;;;;;1694388;29;20211;-70
2022/09/30 07:39:10;;;;;;;16.42;14.73;;;11.80;97.20;;;;;;1694197;29;20222;-69
2022/09/30 07:40:02;;;;;;;17.70;15.90;;;11.80;97.20;;;;;;1693802;29;20212;-69
2022/09/30 07:40:56;;;;;;;18.23;16.23;;;11.80;97.20;;;;;;1694239;29;20879;-69
2022/09/30 07:41:47;;;;;;;18.60;15.20;;;11.80;97.20;;;;;;1694101;29;20211;-69
2022/09/30 07:42:44;;;;;;;19.60;16.87;;;11.80;97.20;;;;;;1694328;29;20212;-69
2022/09/30 07:43:37;;;;;;;19.10;17.15;;;11.80;97.20;;;;;;1694387;29;20231;-69
2022/09/30 07:44:30;;;;;;;18.75;16.85;;;11.80;97.20;;;;;;1694188;29;20235;-68
2022/09/30 07:45:21;;;;;;;17.42;15.60;;;11.80;97.20;;;;;;1693723;29;20621;-68
2022/09/30 07:46:15;;;;;;;20.23;18.20;;;11.80;97.20;;;;;;1694299;29;20235;-68
2022/09/30 07:47:06;;;;;;;16.70;15.10;;;11.80;97.20;;;;;;1693949;29;20246;-69
2022/09/30 07:47:58;;;;;;;18.65;16.65;;;11.80;97.20;;;;;;1694336;29;20207;-70
2022/09/30 07:48:51;;;;;;;17.58;15.70;;;11.80;97.20;;;;;;1694228;29;20691;-70
2022/09/30 07:49:43;;;;;;;17.40;15.73;;;11.80;97.20;;;;;;1693597;29;20227;-70
2022/09/30 07:50:34;;;;;;;18.25;15.40;;;11.90;97.20;;;;;;1694196;29;20227;-70
2022/09/30 07:51:29;;;;;;;19.40;17.40;;;11.90;97.20;;;;;;1694043;29;20662;-70
2022/09/30 07:52:22;;;;;;;17.90;16.13;;;11.80;97.20;;;;;;1694143;29;20255;-70
2022/09/30 07:53:12;;;;;;;18.05;16.27;;;11.90;97.20;;;;;;1694111;29;20211;-70
2022/09/30 07:54:09;;;;;;;17.10;15.40;;;11.90;97.20;;;;;;1694215;29;20196;-70
2022/09/30 07:55:00;;;;;;;18.40;16.58;;;11.90;97.20;;;;;;1691393;29;20227;-70
2022/09/30 07:55:52;;;;;;;17.30;15.60;;;11.90;97.20;;;;;;1693886;29;20215;-70
2022/09/30 07:56:44;;;;;;;19.55;16.13;;;11.90;97.20;;;;;;1693816;29;20200;-70
2022/09/30 07:57:35;;;;;;;17.23;15.40;;;11.90;97.20;;;;;;1694143;29;20671;-70
2022/09/30 07:58:27;;;;;;;18.27;16.50;;;11.90;97.20;;;;;;1694092;29;20658;-70
2022/09/30 07:59:18;;;;;;;18.63;16.63;;;11.90;97.20;;;;;;1694216;29;20211;-70
2022/09/30 08:00:11;;;;;;;19.10;17.05;;;11.90;97.20;;;;;;1693638;29;20283;-70
2022/09/30 08:01:05;;;;;;;17.50;15.77;;;11.90;97.20;;;;;;1694075;29;20219;-70
2022/09/30 08:01:57;;;;;;;22.08;15.85;;;11.90;97.20;;;;;;1693971;29;20341;-71
2022/09/30 08:02:48;;;;;;;18.73;16.92;;;12.00;97.20;;;;;;1693957;29;20216;-70
2022/09/30 08:03:43;;;;;;;18.87;16.93;;;12.00;97.20;;;;;;1694350;29;20712;-70
2022/09/30 08:04:35;;;;;;;19.90;16.42;;;12.00;97.20;;;;;;1694170;29;20223;-70
2022/09/30 08:05:27;;;;;;;18.02;16.23;;;12.00;97.20;;;;;;1693673;29;20219;-70
2022/09/30 08:06:19;;;;;;;18.63;16.67;;;12.10;97.20;;;;;;1694168;29;20203;-70
2022/09/30 08:07:11;;;;;;;21.58;16.30;;;12.00;97.20;;;;;;1693909;29;20585;-70
2022/09/30 08:08:05;;;;;;;18.60;16.70;;;12.10;97.20;;;;;;1694182;29;20247;-70
2022/09/30 08:08:57;;;;;;;18.80;16.25;;;12.10;97.20;;;;;;1694187;29;20223;-70
2022/09/30 08:09:49;;;;;;;17.42;15.68;;;12.10;97.20;;;;;;1693611;29;20207;-70
2022/09/30 08:10:41;;;;;;;16.33;14.73;;;12.10;97.20;;;;;;1694036;29;20232;-70
2022/09/30 08:11:36;;;;;;;16.00;14.40;;;12.10;97.20;;;;;;1694024;29;20254;-72
2022/09/30 08:12:27;;;;;;;17.42;15.70;;;12.10;97.20;;;;;;1694075;29;20219;-70
2022/09/30 08:13:18;;;;;;;18.10;16.40;;;12.00;97.20;;;;;;1694078;29;20199;-70
2022/09/30 08:14:13;;;;;;;16.85;15.05;;;12.00;97.20;;;;;;1694041;29;20214;-70
2022/09/30 08:15:08;;;;;;;14.88;13.48;;;12.00;97.20;;;;;;1693876;29;20619;-70
2022/09/30 08:16:04;;;;;;;16.85;14.32;;;12.00;97.20;;;;;;1694222;29;20235;-70
2022/09/30 08:16:59;;;;;;;15.98;14.05;;;12.00;97.20;;;;;;1693887;29;20204;-68
2022/09/30 08:17:51;;;;;;;15.57;13.90;;;12.00;97.20;;;;;;1694202;29;20237;-68
2022/09/30 08:18:43;;;;;;;16.80;14.75;;;12.00;97.20;;;;;;1687038;29;20287;-68
2022/09/30 08:19:37;;;;;;;15.52;14.10;;;12.00;97.20;;;;;;1686319;29;20221;-68
2022/09/30 08:20:32;;;;;;;15.98;14.38;;;12.10;97.20;;;;;;1691453;29;20210;-68
2022/09/30 08:21:25;;;;;;;16.27;14.80;;;12.10;97.20;;;;;;1693989;29;20211;-68
2022/09/30 08:22:17;;;;;;;16.40;14.80;;;12.10;97.20;;;;;;1694167;29;20203;-68
2022/09/30 08:23:10;;;;;;;15.85;14.35;;;12.10;97.20;;;;;;1694171;29;20283;-69
2022/09/30 08:24:04;;;;;;;17.85;15.80;;;12.10;97.20;;;;;;1694006;29;20713;-68
2022/09/30 08:24:55;;;;;;;17.77;16.05;;;12.10;97.20;;;;;;1693348;29;20252;-68
2022/09/30 08:25:47;;;;;;;18.42;16.55;;;12.20;97.20;;;;;;1693555;29;20227;-68
2022/09/30 08:26:39;;;;;;;17.50;15.70;;;12.20;97.20;;;;;;1693705;29;20211;-69
2022/09/30 08:27:31;;;;;;;16.92;15.23;;;12.20;97.20;;;;;;1694069;29;20231;-69
2022/09/30 08:28:23;;;;;;;18.00;15.70;;;12.20;97.20;;;;;;1694021;29;20234;-68
2022/09/30 08:29:15;;;;;;;17.95;15.80;;;12.20;97.20;;;;;;1693968;29;20258;-68
2022/09/30 08:30:08;;;;;;;21.02;16.35;;;12.30;97.20;;;;;;1693462;29;20266;-68
2022/09/30 08:31:03;;;;;;;21.42;18.60;;;12.30;97.20;;;;;;1693971;29;20269;-69
2022/09/30 08:31:55;;;;;;;23.13;17.50;;;12.30;97.20;;;;;;1693743;29;20267;-70
2022/09/30 08:32:45;;;;;;;19.65;17.70;;;12.30;97.20;;;;;;1693531;29;20239;-71
2022/09/30 08:33:38;;;;;;;19.83;17.27;;;12.40;97.20;;;;;;1693384;29;20210;-70
2022/09/30 08:34:33;;;;;;;19.30;17.35;;;12.40;97.20;;;;;;1693177;29;20228;-70
2022/09/30 08:35:25;;;;;;;20.58;18.58;;;12.40;97.20;;;;;;1692776;29;20679;-70
2022/09/30 08:36:17;;;;;;;18.98;17.27;;;12.40;97.20;;;;;;1692791;29;20231;-68
2022/09/30 08:37:09;;;;;;;18.02;16.25;;;12.40;97.20;;;;;;1692833;29;20192;-68
2022/09/30 08:38:00;;;;;;;19.48;17.52;;;12.50;97.20;;;;;;1694177;29;20215;-68
2022/09/30 08:38:54;;;;;;;17.73;15.93;;;12.50;97.20;;;;;;1694123;29;20208;-68
2022/09/30 08:39:47;;;;;;;20.30;17.60;;;12.50;97.20;;;;;;1693430;29;20208;-69
2022/09/30 08:40:57;;;;;;;18.77;16.80;;;12.50;97.20;;;;;;1693946;29;20222;-69
2022/09/30 08:42:01;;;;;;;18.15;16.35;;;12.50;97.20;;;;;;1693375;29;20211;-69
2022/09/30 08:43:07;;;;;;;19.30;16.65;;;12.50;97.20;;;;;;1693310;29;20212;-69
2022/09/30 08:44:12;;;;;;;19.40;17.23;;;12.60;97.20;;;;;;1694017;29;20662;-69
2022/09/30 08:45:11;;;;;;;17.38;15.48;;;12.60;97.20;;;;;;1693734;29;20203;-69
2022/09/30 08:46:08;;;;;;;17.13;15.30;;;12.60;97.20;;;;;;1693998;29;20232;-68
2022/09/30 08:47:09;;;;;;;17.45;14.48;;;12.70;97.20;;;;;;1693853;29;20219;-69
2022/09/30 08:48:09;;;;;;;15.80;13.88;;;12.70;97.20;;;;;;1693941;29;20271;-69
2022/09/30 08:49:10;;;;;;;15.15;13.55;;;12.70;97.20;;;;;;1694057;29;20212;-69
2022/09/30 08:50:13;;;;;;;16.05;14.55;;;12.70;97.20;;;;;;1693531;29;20211;-69
2022/09/30 08:51:23;;;;;;;19.33;15.65;;;12.70;97.20;;;;;;1693996;29;20200;-68
2022/09/30 08:52:19;;;;;;;17.75;15.85;;;12.80;97.20;;;;;;1693948;29;20271;-69
2022/09/30 08:53:18;;;;;;;18.42;16.67;;;12.80;97.20;;;;;;1693980;29;20764;-69
2022/09/30 08:54:15;;;;;;;17.52;15.73;;;12.80;97.20;;;;;;1693937;29;20651;-69
2022/09/30 08:55:07;;;;;;;16.23;14.73;;;12.80;97.20;;;;;;1693711;29;20291;-69
2022/09/30 08:56:01;;;;;;;17.00;15.20;;;12.90;97.20;;;;;;1694003;29;20208;-69
2022/09/30 08:56:53;;;;;;;16.90;15.30;;;12.90;97.20;;;;;;1693747;29;20310;-69
2022/09/30 08:57:45;;;;;;;18.77;16.90;;;13.00;97.20;;;;;;1693896;29;21232;-69
2022/09/30 08:58:40;;;;;;;19.42;16.38;;;13.00;97.20;;;;;;1693872;29;20215;-68
2022/09/30 08:59:36;;;;;;;18.15;15.40;;;13.10;97.20;;;;;;1693940;29;20267;-68
2022/09/30 09:00:26;;;;;;;18.48;16.55;;;13.10;97.20;;;;;;1693703;29;20247;-68
2022/09/30 09:01:26;;;;;;;18.50;16.70;;;13.20;97.20;;;;;;1693780;29;20203;-68
2022/09/30 09:02:21;;;;;;;18.52;16.13;;;13.30;97.20;;;;;;1693756;29;20208;-68
2022/09/30 09:03:14;;;;;;;18.92;16.30;;;13.30;97.20;;;;;;1693569;29;20232;-68
2022/09/30 09:04:06;;;;;;;18.23;15.43;;;13.40;97.20;;;;;;1693618;29;20207;-68
2022/09/30 09:05:01;;;;;;;19.30;16.80;;;13.50;97.20;;;;;;1693338;29;20228;-68
2022/09/30 09:06:00;;;;;;;18.65;16.73;;;13.60;97.20;;;;;;1693590;29;20212;-68
2022/09/30 09:06:58;;;;;;;17.00;15.35;;;13.60;97.20;;;;;;1693423;29;20196;-68
2022/09/30 09:07:57;;;;;;;18.45;16.48;;;13.70;97.20;;;;;;1693311;29;20208;-69
2022/09/30 09:08:59;;;;;;;19.63;16.13;;;13.80;97.20;;;;;;1693653;29;20699;-68
2022/09/30 09:10:06;;;;;;;16.58;15.00;;;13.90;97.20;;;;;;1693095;29;20214;-68
2022/09/30 09:11:02;;;;;;;16.65;14.85;;;14.00;97.20;;;;;;1693649;29;20741;-69
2022/09/30 09:12:14;;;;;;;17.35;15.18;;;14.00;97.20;;;;;;1693543;29;20207;-69
2022/09/30 09:13:17;;;;;;;17.13;15.32;;;14.10;97.20;;;;;;1693624;29;20235;-69
2022/09/30 09:14:20;;;;;;;18.55;15.95;;;14.20;97.20;;;;;;1693639;29;20208;-68
2022/09/30 09:15:22;;;;;;;19.95;15.48;;;14.30;97.20;;;;;;1694770;29;20208;-68
2022/09/30 09:16:21;;;;;;;18.70;15.98;;;14.40;97.20;;;;;;1694875;29;20215;-68
2022/09/30 09:17:23;;;;;;;17.90;15.60;;;14.50;97.20;;;;;;1694570;29;20231;-69
2022/09/30 09:18:39;;;;;;;19.10;15.05;;;14.70;97.20;;;;;;1694625;29;20196;-69
2022/09/30 09:19:37;;;;;;;17.73;15.15;;;14.90;97.20;;;;;;1694717;29;20207;-69
2022/09/30 09:20:33;;;;;;;16.38;14.68;;;15.00;97.20;;;;;;1694578;29;20211;-69
2022/09/30 09:21:37;;;;;;;16.55;14.77;;;15.10;97.20;;;;;;1694541;29;20587;-68
2022/09/30 09:22:30;;;;;;;15.75;13.85;;;15.30;97.20;;;;;;1694652;29;20602;-69
2022/09/30 09:23:22;;;;;;;13.52;11.90;;;15.40;97.20;;;;;;1694684;29;20208;-69
2022/09/30 09:24:17;;;;;;;13.38;11.98;;;15.50;97.20;;;;;;1694687;29;20689;-69
2022/09/30 09:25:14;;;;;;;13.15;11.95;;;15.60;97.20;;;;;;1694469;29;20232;-69
2022/09/30 09:26:05;;;;;;;13.27;11.93;;;15.70;97.20;;;;;;1694738;29;20228;-69
2022/09/30 09:26:58;;;;;;;9.45;8.48;;;15.80;97.20;;;;;;1694459;29;20204;-71
2022/09/30 09:27:53;;;;;;;10.70;9.70;;;15.90;97.20;;;;;;1694297;29;20682;-69
2022/09/30 09:28:56;;;;;;;10.30;9.30;;;15.90;97.20;;;;;;1694640;29;20200;-69
2022/09/30 09:30:05;;;;;;;10.32;9.15;;;16.00;97.20;;;;;;1693951;29;20235;-69
2022/09/30 09:30:59;;;;;;;10.65;9.55;;;16.00;97.20;;;;;;1694591;29;20718;-69
2022/09/30 09:31:50;;;;;;;10.43;9.30;;;16.10;97.20;;;;;;1694626;29;20231;-69
2022/09/30 09:32:46;;;;;;;11.05;9.27;;;16.20;97.20;;;;;;1694682;29;20204;-68